Time;durP1;ratioP1;P1;durP2;ratioP2;P2;SDS_P1;SDS_P2;PMS_P1;PMS_P2;Temp;Humidity;BMP_temperature;BMP_pressure;BME280_temperature;BME280_humidity;BME280_pressure;Samples;Min_cycle;Max_cycle;Signal;HPM_P1;HPM_P2
2022/07/04 00:02:10;;;;;;;9.68;7.63;;;17.40;99.90;;;;;;20992135;28;20451;-56
2022/07/04 00:12:12;;;;;;;9.30;6.80;;;17.50;99.90;;;;;;21009494;28;20472;-57
2022/07/04 00:22:14;;;;;;;11.23;6.95;;;17.70;99.90;;;;;;21019039;28;20085;-56
2022/07/04 00:32:16;;;;;;;10.82;7.20;;;17.90;99.90;;;;;;21056495;28;20035;-56
2022/07/04 00:42:19;;;;;;;7.50;5.90;;;18.00;99.90;;;;;;21056229;28;20048;-48
2022/07/04 00:52:22;;;;;;;7.78;6.60;;;18.10;99.90;;;;;;21055435;28;20099;-56
2022/07/04 01:02:24;;;;;;;9.15;5.82;;;17.90;99.90;;;;;;20921972;28;20436;-56
2022/07/04 01:12:30;;;;;;;8.05;5.90;;;17.90;99.90;;;;;;20904059;28;20091;-56
2022/07/04 01:22:33;;;;;;;9.70;6.38;;;17.80;99.90;;;;;;20904432;28;20403;-56
2022/07/04 01:32:35;;;;;;;6.78;5.85;;;17.90;99.90;;;;;;20902531;28;20045;-49
2022/07/04 01:42:37;;;;;;;9.13;6.82;;;18.00;99.90;;;;;;20975855;28;20078;-56
2022/07/04 01:52:41;;;;;;;9.23;7.03;;;17.90;99.90;;;;;;20983503;28;20033;-56
2022/07/04 02:02:43;;;;;;;13.98;8.18;;;17.90;99.90;;;;;;21067138;28;20032;-56
2022/07/04 02:13:01;;;;;;;16.15;9.25;;;17.90;99.90;;;;;;21050396;28;20032;-57
2022/07/04 02:23:05;;;;;;;9.35;7.70;;;18.00;99.90;;;;;;21049656;28;20032;-56
2022/07/04 02:33:07;;;;;;;13.20;8.60;;;18.20;99.90;;;;;;21049378;28;20032;-56
2022/07/04 02:43:09;;;;;;;11.00;7.97;;;18.30;99.90;;;;;;20982156;28;20107;-56
2022/07/04 02:53:12;;;;;;;8.15;6.20;;;18.60;99.90;;;;;;20981652;28;20114;-56
2022/07/04 03:03:14;;;;;;;5.03;4.50;;;18.40;99.90;;;;;;20973128;28;20574;-49
2022/07/04 03:13:17;;;;;;;6.70;5.70;;;18.10;99.90;;;;;;20979400;28;20439;-56
2022/07/04 03:23:20;;;;;;;6.13;5.32;;;17.70;99.90;;;;;;20978276;28;20420;-56
2022/07/04 03:33:22;;;;;;;7.28;5.68;;;17.30;99.90;;;;;;20978058;28;20071;-56
2022/07/04 03:43:24;;;;;;;8.68;6.18;;;17.30;99.90;;;;;;20991167;28;20066;-56
2022/07/04 03:53:27;;;;;;;6.05;4.70;;;17.70;99.90;;;;;;20976358;28;20492;-56
2022/07/04 04:13:50;;;;;;;4.88;3.40;;;17.70;99.90;;;;;;20974107;28;20090;-47
2022/07/04 04:23:52;;;;;;;8.23;4.68;;;17.60;99.90;;;;;;20974250;28;20404;-48
2022/07/04 04:33:55;;;;;;;5.50;3.63;;;17.50;99.90;;;;;;20991117;28;20040;-51
2022/07/04 04:43:57;;;;;;;3.80;3.15;;;17.50;99.90;;;;;;21055880;28;20101;-56
2022/07/04 04:53:59;;;;;;;3.38;2.70;;;17.40;99.90;;;;;;21042660;28;20037;-47
2022/07/04 05:04:03;;;;;;;3.53;3.15;;;17.50;99.90;;;;;;20970838;28;20028;-56
2022/07/04 05:14:05;;;;;;;3.25;2.88;;;17.60;99.90;;;;;;20969796;28;20036;-47
2022/07/04 05:24:07;;;;;;;4.15;3.05;;;17.80;99.90;;;;;;20968409;28;20037;-56
2022/07/04 05:34:09;;;;;;;4.40;2.60;;;18.00;99.90;;;;;;20972477;28;20073;-56
2022/07/04 05:44:12;;;;;;;3.55;2.70;;;18.20;99.90;;;;;;21039702;28;20038;-57
2022/07/04 05:54:14;;;;;;;2.50;2.30;;;18.40;99.90;;;;;;20967681;28;20489;-57
2022/07/04 06:04:17;;;;;;;3.30;2.80;;;18.70;99.90;;;;;;20983857;28;20393;-56
2022/07/04 06:14:20;;;;;;;3.50;2.63;;;20.00;99.90;;;;;;20966952;28;20048;-57
2022/07/04 06:24:22;;;;;;;6.03;3.33;;;20.90;99.90;;;;;;20995925;28;20109;-53
2022/07/04 06:44:45;;;;;;;4.35;2.60;;;25.90;92.90;;;;;;21065715;28;20040;-55
2022/07/04 06:54:47;;;;;;;2.60;2.10;;;27.20;90.20;;;;;;21045369;28;20033;-58
2022/07/04 07:04:50;;;;;;;2.45;2.20;;;28.80;82.70;;;;;;20979877;28;20501;-59
2022/07/04 07:14:53;;;;;;;3.15;2.33;;;31.10;78.70;;;;;;20979649;28;20041;-59
2022/07/04 07:24:56;;;;;;;3.33;2.45;;;31.80;73.90;;;;;;20978830;28;20396;-57
2022/07/04 07:34:58;;;;;;;4.18;3.42;;;32.20;73.60;;;;;;20988351;28;20044;-57
2022/07/04 07:45:01;;;;;;;3.30;2.80;;;32.50;71.90;;;;;;21040720;28;20032;-57
2022/07/04 07:55:04;;;;;;;3.67;3.23;;;32.90;74.10;;;;;;20976512;28;20032;-57
2022/07/04 08:05:08;;;;;;;3.17;2.88;;;32.70;73.70;;;;;;20975049;28;20404;-57
2022/07/04 08:15:10;;;;;;;3.50;3.08;;;32.70;73.60;;;;;;20974566;28;20242;-60
2022/07/04 08:25:14;;;;;;;5.68;2.78;;;31.70;74.40;;;;;;21011629;28;20477;-59
2022/07/04 08:35:17;;;;;;;7.60;3.27;;;30.80;76.80;;;;;;21058286;28;20051;-53
2022/07/04 08:45:27;;;;;;;3.10;2.35;;;29.20;78.20;;;;;;21055493;28;20904;-53
2022/07/04 09:05:52;;;;;;;4.28;2.45;;;24.00;92.50;;;;;;20954016;28;20036;-57
2022/07/04 09:15:55;;;;;;;4.72;2.15;;;23.10;97.00;;;;;;20969944;28;20036;-56
2022/07/04 09:26:18;;;;;;;4.25;2.35;;;24.80;93.10;;;;;;20969246;28;20045;-56
2022/07/04 09:36:26;;;;;;;3.65;2.20;;;26.80;88.30;;;;;;20990449;28;20218;-58
2022/07/04 09:46:28;;;;;;;5.22;2.90;;;26.30;91.60;;;;;;21021476;28;20085;-55
2022/07/04 09:56:48;;;;;;;3.25;2.40;;;25.20;94.90;;;;;;20967585;28;20032;-59
2022/07/04 10:06:52;;;;;;;5.53;2.92;;;26.20;95.30;;;;;;20967011;28;20102;-58
2022/07/04 10:16:55;;;;;;;4.85;2.65;;;28.00;88.80;;;;;;20916150;28;20402;-59
2022/07/04 10:26:57;;;;;;;3.22;2.90;;;28.90;84.80;;;;;;21018668;28;20036;-56
2022/07/04 10:36:59;;;;;;;3.20;2.65;;;28.60;87.90;;;;;;21065827;28;20062;-56
2022/07/04 10:47:03;;;;;;;4.00;2.70;;;28.70;85.90;;;;;;21064902;28;20101;-59
2022/07/04 10:57:13;;;;;;;7.63;4.40;;;28.50;82.70;;;;;;21025867;28;20114;-58
2022/07/04 11:07:38;;;;;;;3.42;3.13;;;26.40;86.40;;;;;;20980025;28;20114;-58
2022/07/04 11:17:40;;;;;;;5.32;4.03;;;25.20;91.40;;;;;;20973035;28;20397;-56
2022/07/04 11:27:43;;;;;;;7.38;2.85;;;25.30;90.80;;;;;;20978575;28;20036;-59
2022/07/04 11:37:46;;;;;;;8.80;3.95;;;24.20;91.20;;;;;;21011780;28;20105;-59
2022/07/04 11:47:49;;;;;;;4.63;3.25;;;23.90;91.60;;;;;;21018201;28;20036;-58
2022/07/04 11:57:52;;;;;;;4.25;3.33;;;23.70;92.40;;;;;;20976082;28;20066;-52
2022/07/04 12:07:55;;;;;;;4.00;2.47;;;22.90;93.50;;;;;;20975650;28;20036;-58
2022/07/04 12:17:57;;;;;;;4.90;2.00;;;21.70;92.40;;;;;;20974603;28;20063;-56
2022/07/04 12:28:03;;;;;;;3.97;2.42;;;23.00;91.70;;;;;;21033636;28;20073;-56
2022/07/04 12:38:08;;;;;;;3.97;2.00;;;23.70;91.00;;;;;;21056004;28;20044;-56
2022/07/04 12:48:25;;;;;;;4.72;1.90;;;24.10;90.30;;;;;;21055612;28;20546;-54
2022/07/04 12:58:27;;;;;;;2.28;1.58;;;23.80;89.00;;;;;;21021768;28;20032;-56
2022/07/04 13:08:30;;;;;;;5.03;1.90;;;23.80;91.50;;;;;;20970653;28;20040;-56
2022/07/04 13:18:33;;;;;;;1.38;0.95;;;24.30;89.80;;;;;;20969543;28;20036;-56
2022/07/04 13:28:35;;;;;;;1.05;0.93;;;24.60;87.50;;;;;;20952724;28;20032;-54
2022/07/04 13:38:38;;;;;;;2.05;0.80;;;24.30;86.70;;;;;;21009083;28;20056;-56
2022/07/04 13:48:40;;;;;;;1.33;0.85;;;24.30;85.50;;;;;;21001217;28;20097;-55
2022/07/04 13:58:45;;;;;;;0.93;0.70;;;24.30;85.10;;;;;;20968596;28;20390;-57
2022/07/04 14:08:49;;;;;;;1.48;0.80;;;24.70;85.80;;;;;;20967255;28;20036;-57
2022/07/04 14:18:53;;;;;;;1.13;0.93;;;25.30;83.30;;;;;;20950398;28;20105;-60
2022/07/04 14:28:55;;;;;;;2.13;0.80;;;25.50;84.70;;;;;;21034100;28;20382;-60
2022/07/04 14:38:58;;;;;;;1.95;1.65;;;27.40;77.40;;;;;;21049587;28;20043;-60
2022/07/04 14:49:00;;;;;;;4.07;2.45;;;28.90;76.90;;;;;;21048501;28;20036;-60
2022/07/04 14:59:04;;;;;;;5.07;3.13;;;30.50;79.20;;;;;;21002284;28;20077;-61
2022/07/04 15:09:07;;;;;;;4.03;3.30;;;32.40;75.90;;;;;;20979793;28;20047;-61
2022/07/04 15:19:10;;;;;;;4.38;2.95;;;33.00;73.70;;;;;;20978911;28;20086;-61
2022/07/04 15:29:14;;;;;;;4.93;3.00;;;33.30;73.70;;;;;;20978481;28;20237;-57
2022/07/04 15:39:17;;;;;;;4.97;2.93;;;32.90;70.90;;;;;;21024170;28;20347;-56
2022/07/04 15:49:19;;;;;;;2.80;2.60;;;31.70;71.80;;;;;;21005955;28;20500;-57
2022/07/04 15:59:22;;;;;;;2.55;1.90;;;31.00;74.60;;;;;;20976475;28;20109;-57
2022/07/04 16:09:26;;;;;;;3.53;1.80;;;31.30;72.50;;;;;;20974220;28;20032;-54
2022/07/04 16:19:29;;;;;;;6.43;2.00;;;29.10;79.70;;;;;;20983512;28;20036;-54
2022/07/04 16:29:32;;;;;;;3.65;1.35;;;27.90;78.80;;;;;;20996187;28;20056;-52
2022/07/04 16:39:35;;;;;;;2.08;1.40;;;27.00;81.50;;;;;;20994636;28;20066;-58
2022/07/04 16:49:37;;;;;;;1.90;1.70;;;26.40;82.40;;;;;;20972140;28;20440;-58
2022/07/04 16:59:39;;;;;;;1.55;1.45;;;25.20;81.70;;;;;;20987832;28;20024;-58
2022/07/04 17:09:43;;;;;;;1.73;1.58;;;24.40;87.30;;;;;;20970407;28;20048;-58
2022/07/04 17:19:45;;;;;;;1.60;1.30;;;23.90;92.70;;;;;;21043396;28;20093;-57
2022/07/04 17:29:47;;;;;;;1.98;1.58;;;23.50;91.40;;;;;;21052520;28;20044;-58
2022/07/04 17:39:50;;;;;;;3.00;1.80;;;23.00;92.70;;;;;;21051884;28;20113;-57
2022/07/04 17:49:53;;;;;;;2.08;1.88;;;22.40;95.70;;;;;;20992412;28;20070;-49
2022/07/04 17:59:55;;;;;;;5.78;1.73;;;21.80;95.90;;;;;;20967282;28;20037;-57
2022/07/04 18:09:59;;;;;;;7.53;2.20;;;20.40;93.70;;;;;;20966839;28;20559;-52
2022/07/04 18:20:02;;;;;;;5.35;3.47;;;19.20;95.80;;;;;;20966751;28;20062;-47
2022/07/04 18:30:05;;;;;;;7.55;2.50;;;18.00;99.90;;;;;;21045534;28;20036;-52
2022/07/04 18:43:23;;;;;;;5.45;2.33;;;16.80;99.90;;;;;;21066075;28;20048;-54
2022/07/04 18:50:31;;;;;;;2.78;2.13;;;17.00;99.90;;;;;;21065321;28;20489;-48
2022/07/04 19:00:33;;;;;;;12.45;3.97;;;17.20;99.90;;;;;;21016152;28;20032;-46
2022/07/04 19:10:38;;;;;;;7.28;4.07;;;16.80;99.90;;;;;;20996971;28;20118;-50
2022/07/04 19:20:41;;;;;;;5.50;3.90;;;16.20;99.90;;;;;;20979198;28;20505;-48
2022/07/04 19:30:45;;;;;;;9.18;3.95;;;16.00;99.90;;;;;;20978590;28;20066;-46
2022/07/04 19:40:48;;;;;;;6.50;3.45;;;15.90;99.90;;;;;;21035406;28;20052;-46
2022/07/04 19:50:51;;;;;;;6.05;3.40;;;16.20;99.90;;;;;;20944764;28;20037;-48
2022/07/04 20:00:53;;;;;;;6.72;2.70;;;16.20;99.90;;;;;;20910329;28;20091;-56
2022/07/04 20:10:58;;;;;;;3.08;2.63;;;16.20;99.90;;;;;;20909107;28;20477;-47
2022/07/04 20:21:00;;;;;;;3.88;2.70;;;16.50;99.90;;;;;;20911441;28;20037;-50
2022/07/04 20:31:02;;;;;;;2.47;1.42;;;16.60;99.90;;;;;;21057276;28;20497;-47
2022/07/04 20:41:05;;;;;;;4.20;2.20;;;16.60;99.90;;;;;;21056846;28;20574;-57
2022/07/04 20:51:08;;;;;;;3.35;2.25;;;16.50;99.90;;;;;;21055887;28;20097;-57
2022/07/04 21:01:11;;;;;;;3.00;1.17;;;16.80;99.90;;;;;;21001286;28;20477;-57
2022/07/04 21:11:14;;;;;;;4.63;2.17;;;17.90;99.90;;;;;;20970396;28;20118;-57
2022/07/04 21:21:17;;;;;;;3.80;1.60;;;19.00;99.90;;;;;;20970260;28;20078;-56
2022/07/04 21:31:19;;;;;;;3.83;2.33;;;19.20;99.90;;;;;;20969332;28;20040;-57
2022/07/04 21:41:24;;;;;;;6.13;3.38;;;18.80;99.90;;;;;;21052742;28;20451;-56
2022/07/04 21:51:26;;;;;;;6.63;2.72;;;18.00;99.90;;;;;;20912893;28;20037;-56
2022/07/04 22:01:29;;;;;;;5.97;2.13;;;17.30;99.90;;;;;;20957705;28;20029;-57
2022/07/04 22:11:32;;;;;;;4.85;2.33;;;17.00;99.90;;;;;;20966043;28;20028;-57
2022/07/04 22:21:34;;;;;;;5.22;1.85;;;16.70;99.90;;;;;;20972697;28;20477;-46
2022/07/04 22:31:36;;;;;;;5.20;2.20;;;16.50;99.90;;;;;;21049707;28;20066;-56
2022/07/04 22:41:38;;;;;;;3.42;1.90;;;16.20;99.90;;;;;;21049230;28;20052;-55
2022/07/04 22:51:41;;;;;;;2.40;1.67;;;16.20;99.90;;;;;;21048813;28;20036;-48
2022/07/04 23:01:43;;;;;;;2.15;1.60;;;16.10;99.90;;;;;;20990921;28;20040;-55
2022/07/04 23:11:46;;;;;;;4.82;1.10;;;15.60;99.90;;;;;;20964727;28;20363;-47
2022/07/04 23:21:49;;;;;;;1.73;1.60;;;15.40;99.90;;;;;;20974818;28;20044;-55
2022/07/04 23:31:51;;;;;;;2.95;1.30;;;15.40;99.90;;;;;;20978280;28;20090;-48
2022/07/04 23:41:53;;;;;;;3.47;1.30;;;15.50;99.90;;;;;;20979039;28;20117;-47
2022/07/04 23:51:56;;;;;;;3.53;1.42;;;15.30;99.90;;;;;;20936122;28;20032;-55
